Main page
METAR-TAF:

METAR-TAF

Airports :

Granite Falls Municipal Airport (Lenzen-Roe Memorial Field)

Granite Falls, Minnesota, United States

latitude: 44-45-11N, longitude: 095-33-21W, elevation: 1046 ft

Current weather observation

The report was made 28 minutes ago, at 16:55 UTC
Wind 22 mph from the Southwest with gusts up to 30 mph
Temperature 72°F
Humidity 50%
Pressure 29.75 in. Hg
Visibility: 10 miles
Broken clouds at a height of 12000 ft

METAR: KGDB 251655Z AUTO 22019G26KT 10SM BKN120 22/11 A2975 RMK AO2 T02210107

Time: 12:23 (17:23 UTC)


TAF: missing

Weather observations and forecasts of more than 4000 airports (METAR and TAF reports).

The available stations are represented by yellow and red dots on the map.

Hover mouse over dot to see the name of the station.

Then click to see weather observations and forecasts.

To change the map : click on the green buttons with a black cross to zoom in, on the green button with a dash to zoom out, or on the green arrows for adjacent maps.


METAR-TAF: